createdAt,value
2018-11-04T00:04:37.175Z,9.50
2018-11-04T00:09:41.709Z,9.50
2018-11-04T00:14:46.398Z,9.70
2018-11-04T00:19:50.795Z,9.50
2018-11-04T00:24:55.835Z,9.50
2018-11-04T00:31:03.900Z,9.60
2018-11-04T00:36:08.453Z,9.60
2018-11-04T00:41:12.934Z,9.50
2018-11-04T00:46:17.511Z,9.50
2018-11-04T00:51:22.820Z,9.50
2018-11-04T00:56:27.109Z,9.70
2018-11-04T01:07:00.082Z,9.50
2018-11-04T01:12:05.342Z,9.40
2018-11-04T01:17:10.462Z,9.40
2018-11-04T01:22:14.904Z,9.30
2018-11-04T01:27:19.425Z,9.20
2018-11-04T01:32:23.986Z,9.20
2018-11-04T01:37:28.496Z,9.20
2018-11-04T01:42:32.940Z,9.20
2018-11-04T01:47:37.576Z,9.20
2018-11-04T01:52:42.214Z,9.10
2018-11-04T01:57:47.580Z,9.00
2018-11-04T02:02:52.265Z,9.00
2018-11-04T02:07:56.926Z,9.00
2018-11-04T02:13:02.556Z,9.10
2018-11-04T02:18:07.842Z,9.10
2018-11-04T02:23:12.204Z,9.00
2018-11-04T02:28:16.650Z,9.00
2018-11-04T02:33:21.400Z,8.90
2018-11-04T02:38:26.210Z,8.90
2018-11-04T02:43:30.698Z,8.90
2018-11-04T02:48:35.676Z,8.90
2018-11-04T02:53:40.158Z,8.90
2018-11-04T02:58:44.665Z,8.90
2018-11-04T03:03:49.089Z,8.90
2018-11-04T03:08:53.502Z,8.90
2018-11-04T03:13:58.056Z,8.90
2018-11-04T03:19:03.757Z,9.00
2018-11-04T03:24:08.266Z,8.90
2018-11-04T03:29:12.806Z,9.00
2018-11-04T03:34:17.228Z,9.00
2018-11-04T03:39:21.848Z,9.00
2018-11-04T03:44:26.289Z,9.00
2018-11-04T03:49:30.595Z,9.00
2018-11-04T03:54:35.677Z,9.00
2018-11-04T03:59:40.407Z,9.00
2018-11-04T04:04:45.421Z,9.00
2018-11-04T04:09:50.161Z,9.00
2018-11-04T04:14:55.090Z,9.00
2018-11-04T04:19:59.723Z,9.00
2018-11-04T04:25:04.366Z,9.00
2018-11-04T04:30:10.471Z,8.90
2018-11-04T04:35:15.297Z,8.90
2018-11-04T04:40:19.704Z,8.90
2018-11-04T04:45:24.548Z,9.00
2018-11-04T04:50:29.447Z,9.00
2018-11-04T04:55:34.370Z,9.00
2018-11-04T05:00:39.840Z,9.00
2018-11-04T05:05:44.877Z,9.10
2018-11-04T05:10:49.588Z,9.10
2018-11-04T05:15:54.069Z,9.00
2018-11-04T05:20:58.722Z,9.10
2018-11-04T05:26:03.259Z,9.00
2018-11-04T05:31:08.531Z,9.00
2018-11-04T05:36:14.055Z,9.10
2018-11-04T05:41:18.487Z,9.10
2018-11-04T05:46:23.033Z,9.10
2018-11-04T05:51:28.469Z,8.90
2018-11-04T05:56:33.447Z,8.90
2018-11-04T06:01:38.148Z,8.90
2018-11-04T06:06:42.788Z,8.90
2018-11-04T06:11:47.216Z,8.90
2018-11-04T06:16:51.896Z,8.90
2018-11-04T06:21:56.540Z,8.90
2018-11-04T06:27:01.704Z,8.90
2018-11-04T06:32:06.164Z,8.80
2018-11-04T06:37:12.651Z,8.80
2018-11-04T06:42:23.003Z,8.80
2018-11-04T06:47:27.588Z,8.80
2018-11-04T06:52:34.175Z,8.90
2018-11-04T06:57:50.911Z,8.90
2018-11-04T07:02:57.499Z,9.00
2018-11-04T07:08:01.910Z,9.10
2018-11-04T07:13:06.939Z,9.10
2018-11-04T07:18:12.452Z,9.20
2018-11-04T07:23:16.909Z,9.20
2018-11-04T07:28:21.476Z,9.40
2018-11-04T07:33:26.131Z,9.60
2018-11-04T07:38:30.735Z,9.60
2018-11-04T07:43:35.140Z,9.50
2018-11-04T07:48:40.011Z,9.50
2018-11-04T07:53:45.712Z,9.50
2018-11-04T07:58:50.281Z,9.60
2018-11-04T08:03:54.782Z,9.60
2018-11-04T08:08:59.358Z,9.70
2018-11-04T08:14:03.966Z,9.70
2018-11-04T08:19:08.874Z,9.70
2018-11-04T08:24:13.974Z,9.70
2018-11-04T08:29:18.347Z,9.70
2018-11-04T08:34:22.974Z,9.70
2018-11-04T08:39:27.605Z,9.60
2018-11-04T08:44:33.017Z,9.60
2018-11-04T08:49:38.280Z,9.70
2018-11-04T08:54:43.026Z,9.70
2018-11-04T08:59:47.464Z,9.80
2018-11-04T09:04:52.245Z,9.80
2018-11-04T09:09:57.456Z,9.90
2018-11-04T09:15:02.415Z,10.20
2018-11-04T09:20:08.998Z,10.10
2018-11-04T09:25:13.896Z,10.20
2018-11-04T09:30:18.502Z,10.50
2018-11-04T09:35:22.808Z,10.50
2018-11-04T09:40:28.008Z,10.50
2018-11-04T09:45:33.235Z,10.70
2018-11-04T09:50:37.878Z,10.60
2018-11-04T09:55:42.391Z,10.60
2018-11-04T10:00:47.237Z,10.70
2018-11-04T10:05:51.588Z,10.70
2018-11-04T10:10:56.016Z,10.70
2018-11-04T10:16:01.144Z,10.60
2018-11-04T10:21:06.103Z,10.60
2018-11-04T10:26:10.332Z,10.60
2018-11-04T10:31:16.099Z,10.70
2018-11-04T10:36:21.453Z,10.60
2018-11-04T10:41:26.099Z,10.70
2018-11-04T10:46:30.586Z,10.70
2018-11-04T10:51:35.537Z,10.60
2018-11-04T10:56:40.026Z,10.70
2018-11-04T11:01:44.605Z,10.70
2018-11-04T11:06:49.454Z,10.80
2018-11-04T11:11:54.134Z,10.90
2018-11-04T11:17:00.080Z,10.80
2018-11-04T11:22:04.553Z,10.60
2018-11-04T11:27:09.379Z,10.80
2018-11-04T11:32:13.839Z,10.90
2018-11-04T11:37:19.161Z,10.90
2018-11-04T11:42:25.073Z,11.00
2018-11-04T11:47:29.570Z,10.90
2018-11-04T11:52:33.942Z,11.00
2018-11-04T11:57:38.336Z,10.90
2018-11-04T12:02:43.042Z,11.00
2018-11-04T12:07:48.058Z,10.90
2018-11-04T12:12:52.866Z,11.00
2018-11-04T12:17:58.209Z,11.00
2018-11-04T12:23:03.939Z,11.00
2018-11-04T12:28:08.504Z,11.00
2018-11-04T12:33:13.405Z,11.00
2018-11-04T12:38:18.263Z,11.10
2018-11-04T12:43:22.795Z,11.00
2018-11-04T12:48:27.290Z,11.00
2018-11-04T12:53:31.739Z,11.00
2018-11-04T12:58:42.636Z,11.00
2018-11-04T13:03:47.169Z,11.00
2018-11-04T13:08:51.621Z,10.90
2018-11-04T13:13:56.105Z,11.10
2018-11-04T13:19:00.536Z,11.10
2018-11-04T13:24:06.494Z,11.30
2018-11-04T13:29:10.823Z,11.30
2018-11-04T13:34:14.952Z,11.40
2018-11-04T13:39:19.314Z,11.40
2018-11-04T13:44:23.705Z,11.30
2018-11-04T13:49:29.356Z,11.30
2018-11-04T13:54:33.930Z,11.40
2018-11-04T13:59:38.849Z,11.30
2018-11-04T14:04:44.089Z,11.40
2018-11-04T14:09:49.650Z,11.50
2018-11-04T14:14:54.075Z,11.70
2018-11-04T14:19:58.475Z,11.50
2018-11-04T14:25:03.003Z,11.40
2018-11-04T14:30:11.246Z,11.30
2018-11-04T14:35:15.794Z,11.30
2018-11-04T14:45:54.687Z,11.30
2018-11-04T14:50:59.066Z,11.10
2018-11-04T14:56:03.468Z,10.90
2018-11-04T15:01:08.596Z,10.80
2018-11-04T15:06:12.551Z,10.80
2018-11-04T15:11:16.928Z,10.60
2018-11-04T15:16:21.349Z,10.60
2018-11-04T15:21:25.941Z,10.50
2018-11-04T15:26:30.540Z,10.50
2018-11-04T15:31:34.965Z,10.40
2018-11-04T15:36:39.475Z,10.30
2018-11-04T15:41:43.993Z,10.30
2018-11-04T15:46:48.462Z,10.20
2018-11-04T15:51:53.036Z,10.10
2018-11-04T15:57:02.660Z,10.00
2018-11-04T16:02:06.992Z,10.10
2018-11-04T16:12:39.500Z,9.80
2018-11-04T16:17:45.989Z,9.70
2018-11-04T16:22:51.065Z,9.70
2018-11-04T16:27:56.156Z,9.70
2018-11-04T16:33:00.740Z,9.60
2018-11-04T16:38:06.159Z,9.50
2018-11-04T16:43:11.709Z,9.50
2018-11-04T16:48:16.167Z,9.50
2018-11-04T16:53:20.957Z,9.60
2018-11-04T16:58:26.413Z,9.60
2018-11-04T17:03:30.992Z,9.60
2018-11-04T17:08:35.442Z,9.50
2018-11-04T17:13:39.821Z,9.50
2018-11-04T17:18:44.903Z,9.40
2018-11-04T17:23:50.494Z,9.30
2018-11-04T17:28:55.157Z,9.10
2018-11-04T17:33:59.594Z,9.00
2018-11-04T17:39:05.247Z,9.00
2018-11-04T17:44:10.665Z,8.90
2018-11-04T17:49:15.591Z,9.00
2018-11-04T17:54:20.169Z,9.10
2018-11-04T17:59:25.565Z,9.00
2018-11-04T18:04:29.997Z,9.00
2018-11-04T18:09:34.855Z,9.00
2018-11-04T18:14:39.474Z,9.00
2018-11-04T18:19:44.001Z,8.90
2018-11-04T18:24:48.818Z,8.90
2018-11-04T18:29:53.368Z,8.70
2018-11-04T18:34:57.826Z,8.60
2018-11-04T18:40:03.328Z,8.50
2018-11-04T18:45:09.454Z,8.40
2018-11-04T18:50:14.704Z,8.40
2018-11-04T18:55:19.149Z,8.40
2018-11-04T19:00:23.893Z,8.30
2018-11-04T19:05:28.528Z,8.20
2018-11-04T19:10:33.688Z,8.20
2018-11-04T19:15:41.699Z,8.30
2018-11-04T19:20:53.246Z,8.10
2018-11-04T19:26:00.208Z,8.10
2018-11-04T19:31:06.346Z,8.10
2018-11-04T19:36:11.163Z,8.00
2018-11-04T19:41:19.386Z,7.90
2018-11-04T19:46:28.121Z,7.90
2018-11-04T19:51:32.817Z,7.90
2018-11-04T19:56:38.348Z,7.80
2018-11-04T20:01:43.563Z,7.70
2018-11-04T20:06:48.262Z,7.60
2018-11-04T20:11:53.149Z,7.60
2018-11-04T20:16:58.048Z,7.60
2018-11-04T20:22:03.716Z,7.50
2018-11-04T20:27:09.495Z,7.30
2018-11-04T20:32:19.233Z,7.20
2018-11-04T20:37:23.868Z,7.20
2018-11-04T20:42:29.006Z,7.10
2018-11-04T20:47:40.316Z,7.00
2018-11-04T20:52:44.909Z,6.90
2018-11-04T20:57:57.906Z,6.80
2018-11-04T21:03:02.714Z,6.70
2018-11-04T21:08:07.856Z,7.00
2018-11-04T21:13:12.808Z,7.00
2018-11-04T21:18:17.891Z,6.90
2018-11-04T21:23:22.737Z,6.90
2018-11-04T21:28:28.209Z,6.90
2018-11-04T21:33:32.890Z,6.90
2018-11-04T21:38:37.466Z,6.80
2018-11-04T21:43:42.306Z,6.70
2018-11-04T21:48:47.021Z,6.60
2018-11-04T21:53:51.399Z,6.60
2018-11-04T21:58:56.161Z,6.80
2018-11-04T22:04:01.933Z,7.00
2018-11-04T22:09:08.201Z,7.10
2018-11-04T22:14:12.807Z,6.90
2018-11-04T22:19:17.612Z,6.80
2018-11-04T22:24:22.373Z,6.80
2018-11-04T22:29:26.904Z,6.90
2018-11-04T22:34:31.551Z,7.10
2018-11-04T22:39:36.755Z,7.10
2018-11-04T22:44:41.364Z,7.00
2018-11-04T22:49:46.271Z,7.00
2018-11-04T22:54:50.867Z,6.90
2018-11-04T22:59:55.508Z,7.30
2018-11-04T23:05:05.113Z,7.20
2018-11-04T23:10:09.561Z,7.20
2018-11-04T23:15:14.394Z,7.20
2018-11-04T23:20:18.765Z,7.20
2018-11-04T23:25:22.993Z,7.20
2018-11-04T23:30:27.347Z,7.40
2018-11-04T23:35:32.033Z,7.30
2018-11-04T23:40:36.425Z,7.40
2018-11-04T23:45:40.811Z,7.30
2018-11-04T23:50:45.833Z,7.20
2018-11-04T23:55:50.251Z,7.20
